createdAt,value
2023-01-25T05:15:33.200Z,59.34
2023-01-25T05:18:00.118Z,59.04
2023-01-25T05:20:26.688Z,59.05
2023-01-25T05:22:53.779Z,59.37
2023-01-25T05:25:39.644Z,59.21
2023-01-25T05:28:07.587Z,59.40
2023-01-25T05:30:53.332Z,59.56
2023-01-25T05:33:23.793Z,59.75
2023-01-25T05:35:50.299Z,59.66
2023-01-25T05:38:18.366Z,59.24
2023-01-25T05:40:44.887Z,59.23
2023-01-25T05:43:12.195Z,59.21
2023-01-25T05:45:43.528Z,59.20
2023-01-25T05:48:10.944Z,58.90
2023-01-25T05:50:38.446Z,59.19
2023-01-25T05:53:08.906Z,59.01
2023-01-25T05:55:37.355Z,58.98
2023-01-25T05:58:08.358Z,59.24
2023-01-25T06:00:34.931Z,59.15
2023-01-25T06:03:06.523Z,58.82
2023-01-25T06:05:35.636Z,59.19
2023-01-25T06:08:02.332Z,59.55
2023-01-25T06:10:43.313Z,59.25
2023-01-25T06:13:10.214Z,59.33
2023-01-25T06:15:36.923Z,59.62
2023-01-25T06:18:26.780Z,59.57
2023-01-25T06:21:18.561Z,59.46
2023-01-25T06:23:45.369Z,59.21
2023-01-25T06:26:16.775Z,59.03
2023-01-25T06:28:43.726Z,58.84
2023-01-25T06:31:21.441Z,59.24
2023-01-25T06:33:50.342Z,58.92
2023-01-25T06:36:21.317Z,59.34
2023-01-25T06:38:50.694Z,59.25
2023-01-25T06:41:17.817Z,59.11
2023-01-25T06:43:44.441Z,59.22
2023-01-25T06:46:12.183Z,59.48
2023-01-25T06:48:39.797Z,59.39
2023-01-25T06:51:08.676Z,59.30
2023-01-25T06:53:38.334Z,59.23
2023-01-25T06:56:11.829Z,59.36
2023-01-25T06:59:04.410Z,59.87
2023-01-25T07:01:30.977Z,59.41
2023-01-25T07:03:59.211Z,59.63
2023-01-25T07:06:31.124Z,60.16
2023-01-25T07:09:24.531Z,59.66
2023-01-25T07:11:56.285Z,60.36
2023-01-25T07:14:22.849Z,59.80
2023-01-25T07:16:49.398Z,59.82
2023-01-25T07:19:17.827Z,59.95
2023-01-25T07:21:47.406Z,59.78
2023-01-25T07:24:16.606Z,60.16
2023-01-25T07:26:43.922Z,59.98
2023-01-25T07:29:15.937Z,60.01
2023-01-25T07:31:46.093Z,61.30
2023-01-25T07:34:13.515Z,61.14
2023-01-25T07:36:43.695Z,60.59
2023-01-25T07:39:11.797Z,60.89
2023-01-25T07:41:42.094Z,60.12
2023-01-25T07:44:43.660Z,60.18
2023-01-25T07:47:12.720Z,59.93
2023-01-25T07:49:39.288Z,60.07
2023-01-25T07:52:05.864Z,59.90
2023-01-25T07:54:32.380Z,60.06
2023-01-25T07:56:58.952Z,59.98
2023-01-25T07:59:31.267Z,60.61
2023-01-25T08:01:57.818Z,60.54
2023-01-25T08:04:52.699Z,60.38
2023-01-25T08:07:20.121Z,60.52
2023-01-25T08:09:48.977Z,60.29
2023-01-25T08:12:18.525Z,59.45
2023-01-25T08:14:45.081Z,60.08
2023-01-25T08:17:11.564Z,59.80
2023-01-25T08:19:42.748Z,59.74
2023-01-25T08:22:10.302Z,60.03
2023-01-25T08:24:36.909Z,59.95
2023-01-25T08:27:03.529Z,59.86
2023-01-25T08:29:32.154Z,60.09
2023-01-25T08:31:58.910Z,60.14
2023-01-25T08:34:25.524Z,60.16
2023-01-25T08:39:21.456Z,59.74
2023-01-25T08:41:47.922Z,59.84
2023-01-25T08:44:14.547Z,60.15
2023-01-25T08:46:41.076Z,60.17
2023-01-25T08:49:09.260Z,60.11
2023-01-25T08:51:35.772Z,59.60
2023-01-25T08:54:04.331Z,60.12
2023-01-25T08:56:31.123Z,59.48
2023-01-25T08:58:59.690Z,59.71
2023-01-25T09:01:30.854Z,59.08
2023-01-25T09:04:16.768Z,59.67
2023-01-25T09:06:44.683Z,59.41
2023-01-25T09:09:13.262Z,60.30
2023-01-25T09:11:40.739Z,60.10
2023-01-25T09:14:07.307Z,59.84
2023-01-25T09:16:33.780Z,59.80
2023-01-25T09:19:03.448Z,59.85
2023-01-25T09:21:30.345Z,59.67
2023-01-25T09:24:05.861Z,59.75
2023-01-25T09:26:50.092Z,59.98
2023-01-25T09:29:26.997Z,60.02
2023-01-25T09:31:53.677Z,60.03
2023-01-25T09:35:04.493Z,59.39
2023-01-25T09:37:37.611Z,59.81
2023-01-25T09:40:13.423Z,59.63
2023-01-25T09:43:04.355Z,59.17
2023-01-25T09:45:33.131Z,58.98
2023-01-25T09:48:23.783Z,59.00
2023-01-25T09:51:24.806Z,58.92
2023-01-25T09:53:56.321Z,59.12
2023-01-25T09:56:27.731Z,59.13
2023-01-25T09:59:00.954Z,58.91
2023-01-25T10:01:48.984Z,59.00
2023-01-25T10:04:24.750Z,59.50
2023-01-25T10:07:00.892Z,59.45
2023-01-25T10:09:46.356Z,59.45
2023-01-25T10:12:24.126Z,59.34
2023-01-25T10:14:52.004Z,59.39
2023-01-25T10:17:30.829Z,58.56
2023-01-25T10:20:04.333Z,59.18
2023-01-25T10:22:40.763Z,59.39
2023-01-25T10:25:29.249Z,58.72
2023-01-25T10:28:01.830Z,59.26
2023-01-25T10:30:31.455Z,59.47
2023-01-25T10:33:11.944Z,58.30
2023-01-25T10:35:44.903Z,58.43
2023-01-25T10:38:30.182Z,58.66
2023-01-25T10:41:05.938Z,59.10
2023-01-25T10:43:33.592Z,58.61
2023-01-25T10:46:03.260Z,58.49
2023-01-25T10:48:39.208Z,58.88
2023-01-25T10:51:33.263Z,59.08
2023-01-25T10:54:03.508Z,58.48
2023-01-25T10:56:33.802Z,58.66
2023-01-25T10:59:27.116Z,58.46
2023-01-25T11:02:47.113Z,58.41
2023-01-25T11:05:33.807Z,58.24
2023-01-25T11:08:24.435Z,58.23
2023-01-25T11:10:52.735Z,58.13
2023-01-25T11:13:27.289Z,58.40
2023-01-25T11:16:00.063Z,59.14
2023-01-25T11:18:31.506Z,58.68
2023-01-25T11:21:21.996Z,58.58
2023-01-25T11:24:11.077Z,58.67
2023-01-25T11:27:12.143Z,59.08
2023-01-25T11:29:41.666Z,59.29
2023-01-25T11:32:28.422Z,58.55
2023-01-25T11:35:13.772Z,58.68
2023-01-25T11:38:10.821Z,58.70
2023-01-25T11:40:54.415Z,58.63
2023-01-25T11:43:46.397Z,59.15
2023-01-25T11:46:39.667Z,58.88
2023-01-25T11:49:37.032Z,58.68
2023-01-25T11:52:35.532Z,59.08
2023-01-25T11:55:29.369Z,58.45
2023-01-25T11:58:07.627Z,58.30
2023-01-25T12:01:15.192Z,60.38
2023-01-25T12:04:10.473Z,59.90
2023-01-25T12:07:13.133Z,58.04
2023-01-25T12:09:53.879Z,57.81
2023-01-25T12:12:48.072Z,57.58
2023-01-25T12:15:22.825Z,57.46
2023-01-25T12:18:31.163Z,57.46
2023-01-25T12:21:06.359Z,57.33
2023-01-25T12:24:06.195Z,57.62
2023-01-25T12:27:01.568Z,57.78
2023-01-25T12:29:39.005Z,57.51
2023-01-25T12:32:37.301Z,57.84
2023-01-25T12:35:41.567Z,57.72
2023-01-25T12:38:18.135Z,58.07
2023-01-25T12:40:51.784Z,57.72
2023-01-25T12:43:30.860Z,57.29
2023-01-25T12:46:00.430Z,57.32
2023-01-25T12:48:41.554Z,57.55
2023-01-25T12:51:12.479Z,57.18
2023-01-25T12:53:48.709Z,57.60
2023-01-25T12:56:43.800Z,57.34
2023-01-25T12:59:48.345Z,57.93
2023-01-25T13:02:36.725Z,58.97
2023-01-25T13:05:22.463Z,58.92
2023-01-25T13:08:43.343Z,58.70
2023-01-25T13:11:33.956Z,59.02
2023-01-25T13:17:35.550Z,59.09
2023-01-25T13:20:34.622Z,58.54
2023-01-25T13:23:07.879Z,58.25
2023-01-25T13:25:36.289Z,58.28
2023-01-25T13:28:40.670Z,58.12
2023-01-25T13:31:07.289Z,58.02
2023-01-25T13:33:35.955Z,58.11
2023-01-25T13:36:37.820Z,58.77
2023-01-25T13:39:31.662Z,59.00
2023-01-25T13:42:04.354Z,59.09
2023-01-25T13:44:33.432Z,59.48
2023-01-25T13:47:03.932Z,59.04
2023-01-25T13:49:44.403Z,58.48
2023-01-25T13:52:19.344Z,58.49
2023-01-25T13:54:48.497Z,58.89
2023-01-25T13:57:20.903Z,58.97
2023-01-25T13:59:50.686Z,59.03
2023-01-25T14:02:23.869Z,59.00
2023-01-25T14:04:52.356Z,58.49
2023-01-25T14:07:24.951Z,58.95
2023-01-25T14:09:52.798Z,59.10
2023-01-25T14:12:37.568Z,58.87
2023-01-25T14:15:31.634Z,58.94
2023-01-25T14:18:16.384Z,58.59
2023-01-25T14:20:44.295Z,58.62
2023-01-25T14:23:21.547Z,58.65
2023-01-25T14:25:48.220Z,58.36
2023-01-25T14:28:15.025Z,59.32
2023-01-25T14:30:42.936Z,58.96
2023-01-25T14:33:33.191Z,59.32
2023-01-25T14:36:27.576Z,58.93
2023-01-25T14:38:56.051Z,59.26
2023-01-25T14:41:35.985Z,59.26
2023-01-25T14:44:05.140Z,59.05
2023-01-25T14:46:34.953Z,58.98
2023-01-25T14:49:27.399Z,59.30
2023-01-25T14:51:56.633Z,58.92
2023-01-25T14:54:27.202Z,60.43
2023-01-25T14:56:57.836Z,59.48
2023-01-25T14:59:32.734Z,62.21
2023-01-25T15:02:04.350Z,64.22
2023-01-25T15:04:35.754Z,66.03
2023-01-25T15:07:12.808Z,65.09
2023-01-25T15:10:14.265Z,63.26
2023-01-25T15:12:41.163Z,62.71
2023-01-25T15:15:20.346Z,62.42
2023-01-25T15:17:50.003Z,62.11
2023-01-25T15:20:31.199Z,61.54
2023-01-25T15:23:02.167Z,61.42
2023-01-25T15:25:29.095Z,61.43
2023-01-25T15:27:56.169Z,60.97
2023-01-25T15:30:33.054Z,61.52
2023-01-25T15:33:17.115Z,61.83
2023-01-25T15:35:44.838Z,61.49
2023-01-25T15:38:13.086Z,61.03
2023-01-25T15:40:39.987Z,60.99
2023-01-25T15:43:17.721Z,61.27
2023-01-25T15:45:48.019Z,61.10
2023-01-25T15:48:18.657Z,61.20
2023-01-25T15:50:45.703Z,61.08
2023-01-25T15:53:17.513Z,60.77
2023-01-25T15:55:50.973Z,60.23
2023-01-25T15:58:37.857Z,60.83
2023-01-25T16:01:09.376Z,60.39
2023-01-25T16:03:36.556Z,59.97
2023-01-25T16:06:07.556Z,60.39
2023-01-25T16:08:37.026Z,59.97
2023-01-25T16:11:03.707Z,60.27
2023-01-25T16:13:32.604Z,59.82
2023-01-25T16:16:02.005Z,59.92
2023-01-25T16:18:28.935Z,60.97
2023-01-25T16:20:58.224Z,60.46
2023-01-25T16:23:24.789Z,61.49
2023-01-25T16:25:51.350Z,60.78
2023-01-25T16:28:20.593Z,60.84
2023-01-25T16:30:47.246Z,60.33
2023-01-25T16:33:13.891Z,60.60
2023-01-25T16:35:40.404Z,60.13
2023-01-25T16:38:11.557Z,60.16
2023-01-25T16:40:40.156Z,60.33
2023-01-25T16:43:07.038Z,60.61
2023-01-25T16:45:34.019Z,60.68
2023-01-25T16:48:02.311Z,60.74
2023-01-25T16:50:31.163Z,60.62
2023-01-25T16:52:58.551Z,60.45
2023-01-25T16:55:25.202Z,60.78
2023-01-25T16:57:51.925Z,60.57
2023-01-25T17:00:18.943Z,60.56
2023-01-25T17:02:58.265Z,60.11
2023-01-25T17:05:33.635Z,60.40
2023-01-25T17:08:00.572Z,60.78
2023-01-25T17:10:27.156Z,60.36
2023-01-25T17:12:53.826Z,60.37
2023-01-25T17:15:20.571Z,60.11
2023-01-25T17:17:47.114Z,59.99
2023-01-25T17:20:13.633Z,60.24
2023-01-25T17:22:41.944Z,60.00
2023-01-25T17:25:08.607Z,59.76
2023-01-25T17:27:35.262Z,59.88
2023-01-25T17:30:02.101Z,60.02
2023-01-25T17:32:28.736Z,59.81
2023-01-25T17:34:58.970Z,60.17
2023-01-25T17:37:25.964Z,60.28
2023-01-25T17:39:52.759Z,60.08
2023-01-25T17:42:19.513Z,59.62
2023-01-25T17:44:46.153Z,60.04
2023-01-25T17:47:12.707Z,59.82
2023-01-25T17:49:39.212Z,59.95
2023-01-25T17:52:05.809Z,59.75
2023-01-25T17:54:32.329Z,60.17
2023-01-25T17:56:58.830Z,60.17
2023-01-25T17:59:25.366Z,59.99
2023-01-25T18:01:52.151Z,59.93
2023-01-25T18:04:19.165Z,59.92
2023-01-25T18:06:45.891Z,59.46
2023-01-25T18:09:12.383Z,59.53
2023-01-25T18:11:40.909Z,59.19
2023-01-25T18:14:12.509Z,59.22
2023-01-25T18:16:40.621Z,59.22
2023-01-25T18:19:08.453Z,59.31
2023-01-25T18:21:36.064Z,58.63
2023-01-25T18:24:24.865Z,59.44
2023-01-25T18:26:54.319Z,58.76
2023-01-25T18:29:44.562Z,59.59
2023-01-25T18:32:11.290Z,58.83
2023-01-25T18:34:37.855Z,59.11
2023-01-25T18:37:17.646Z,58.58
2023-01-25T18:39:49.152Z,59.36
2023-01-25T18:42:15.724Z,58.83
2023-01-25T18:44:43.477Z,59.49
2023-01-25T18:47:13.726Z,59.04
2023-01-25T18:49:41.244Z,59.00
2023-01-25T18:52:11.714Z,59.32
2023-01-25T18:54:39.071Z,59.78
2023-01-25T18:57:06.859Z,59.33
2023-01-25T18:59:33.515Z,59.66
2023-01-25T19:02:00.290Z,59.63
2023-01-25T19:04:27.663Z,59.91
2023-01-25T19:06:57.493Z,59.87
2023-01-25T19:09:25.188Z,60.41
2023-01-25T19:11:52.085Z,59.92
2023-01-25T19:14:18.906Z,59.42
2023-01-25T19:16:45.721Z,59.66
2023-01-25T19:19:12.545Z,60.07
2023-01-25T19:21:39.286Z,59.34
2023-01-25T19:24:10.575Z,62.67
2023-01-25T19:26:37.244Z,62.25
2023-01-25T19:29:03.764Z,61.48
2023-01-25T19:31:32.502Z,61.71
2023-01-25T19:34:01.914Z,62.86
2023-01-25T19:36:30.414Z,64.03
2023-01-25T19:38:59.888Z,64.15
2023-01-25T19:41:28.669Z,63.66
2023-01-25T19:43:57.437Z,63.81
2023-01-25T19:46:26.983Z,65.80
2023-01-25T19:48:58.052Z,65.29
2023-01-25T19:51:46.348Z,63.42
2023-01-25T19:54:17.722Z,63.85
2023-01-25T19:56:49.453Z,62.84
2023-01-25T19:59:18.830Z,62.39
2023-01-25T20:01:46.343Z,62.59
2023-01-25T20:04:19.820Z,62.01
2023-01-25T20:06:46.957Z,61.83
2023-01-25T20:09:18.407Z,61.89
2023-01-25T20:11:46.970Z,61.34
2023-01-25T20:14:14.884Z,62.26
2023-01-25T20:17:08.137Z,62.00
2023-01-25T20:19:37.081Z,62.24
2023-01-25T20:22:04.049Z,62.28
2023-01-25T20:24:30.674Z,61.31
2023-01-25T20:26:58.849Z,62.00
2023-01-25T20:29:26.033Z,61.00
2023-01-25T20:31:53.166Z,61.20
2023-01-25T20:34:22.770Z,60.87
2023-01-25T20:36:50.950Z,60.64
2023-01-25T20:39:19.899Z,60.93
2023-01-25T20:41:47.406Z,60.73
2023-01-25T20:44:17.150Z,60.59
2023-01-25T20:46:44.106Z,61.10
2023-01-25T20:49:14.912Z,61.32
2023-01-25T20:51:44.291Z,60.96
2023-01-25T20:54:11.039Z,60.74
2023-01-25T20:56:37.640Z,61.03
2023-01-25T20:59:04.202Z,61.01
2023-01-25T21:01:39.065Z,60.59
2023-01-25T21:04:08.072Z,61.28
2023-01-25T21:06:35.805Z,60.56
2023-01-25T21:09:03.389Z,60.75
2023-01-25T21:11:29.899Z,60.50
2023-01-25T21:13:56.933Z,60.57
2023-01-25T21:16:26.219Z,60.14
2023-01-25T21:18:55.514Z,60.42
2023-01-25T21:21:25.744Z,60.14
2023-01-25T21:23:52.992Z,60.52
2023-01-25T21:26:22.831Z,60.25
2023-01-25T21:28:50.437Z,60.24
2023-01-25T21:31:22.652Z,59.43
2023-01-25T21:33:49.440Z,60.19
2023-01-25T21:36:17.251Z,59.89
2023-01-25T21:38:49.051Z,59.03
2023-01-25T21:41:24.746Z,59.29
2023-01-25T21:44:12.078Z,59.52
2023-01-25T21:46:39.479Z,59.70
2023-01-25T21:49:27.199Z,59.78
2023-01-25T21:51:55.824Z,59.69
2023-01-25T21:54:27.542Z,59.66
2023-01-25T21:56:55.895Z,59.86
2023-01-25T21:59:22.955Z,59.89
2023-01-25T22:01:50.550Z,59.87
2023-01-25T22:04:18.744Z,59.95
2023-01-25T22:06:46.221Z,60.22
2023-01-25T22:09:13.367Z,59.64
2023-01-25T22:11:40.648Z,61.06
2023-01-25T22:14:07.637Z,60.29
2023-01-25T22:16:34.173Z,60.80
2023-01-25T22:19:00.640Z,60.92
2023-01-25T22:21:31.121Z,59.97
2023-01-25T22:23:58.703Z,60.69
2023-01-25T22:26:27.037Z,60.71
2023-01-25T22:28:55.685Z,60.50
2023-01-25T22:31:23.429Z,60.78
2023-01-25T22:33:51.152Z,61.02
2023-01-25T22:36:19.552Z,61.39
2023-01-25T22:38:46.571Z,60.82
2023-01-25T22:41:17.738Z,61.80
2023-01-25T22:43:44.761Z,61.56
2023-01-25T22:46:16.948Z,60.99
2023-01-25T22:48:44.250Z,61.71
2023-01-25T22:51:13.859Z,61.37
2023-01-25T22:53:40.906Z,61.83
2023-01-25T22:56:09.507Z,61.70
2023-01-25T22:58:37.159Z,61.51
